createdAt,value
2018-11-01T05:58:31.641Z,95788.23
2018-11-01T06:01:01.749Z,95795.20
2018-11-01T06:03:30.734Z,95795.27
2018-11-01T06:05:59.440Z,95786.70
2018-11-01T06:08:31.873Z,95790.47
2018-11-01T06:11:00.685Z,95791.02
2018-11-01T06:13:29.469Z,95791.42
2018-11-01T06:15:58.161Z,95785.22
2018-11-01T06:18:26.870Z,95791.13
2018-11-01T06:20:55.620Z,95798.16
2018-11-01T06:23:24.313Z,95798.95
2018-11-01T06:25:52.964Z,95806.48
2018-11-01T06:28:21.731Z,95813.34
2018-11-01T06:30:50.494Z,95807.80
2018-11-01T06:33:19.213Z,95819.88
2018-11-01T06:35:50.300Z,95817.11
2018-11-01T06:38:18.997Z,95817.08
2018-11-01T06:40:48.057Z,95811.20
2018-11-01T06:43:16.714Z,95810.70
2018-11-01T06:45:50.710Z,95810.50
2018-11-01T06:48:19.501Z,95812.12
2018-11-01T06:50:48.314Z,95816.36
2018-11-01T06:53:17.052Z,95821.45
2018-11-01T06:55:45.789Z,95817.18
2018-11-01T06:58:14.556Z,95811.81
2018-11-01T07:00:43.232Z,95813.41
2018-11-01T07:03:11.973Z,95813.06
2018-11-01T07:05:40.756Z,95820.25
2018-11-01T07:08:09.421Z,95820.41
2018-11-01T07:10:38.081Z,95818.44
2018-11-01T07:13:06.880Z,95809.45
2018-11-01T07:15:35.624Z,95805.41
2018-11-01T07:18:04.548Z,95802.56
2018-11-01T07:20:33.347Z,95805.62
2018-11-01T07:23:02.044Z,95799.02
2018-11-01T07:25:30.856Z,95803.70
2018-11-01T07:27:59.587Z,95810.84
2018-11-01T07:30:28.249Z,95814.30
2018-11-01T07:32:56.935Z,95810.34
2018-11-01T07:35:25.609Z,95797.34
2018-11-01T07:37:54.321Z,95796.08
2018-11-01T07:40:23.128Z,95788.91
2018-11-01T07:42:51.859Z,95787.83
2018-11-01T07:45:20.626Z,95787.03
2018-11-01T07:47:49.440Z,95790.09
2018-11-01T07:50:18.214Z,95784.79
2018-11-01T07:52:47.080Z,95778.80
2018-11-01T07:55:16.770Z,95780.10
2018-11-01T07:57:45.501Z,95779.45
2018-11-01T08:00:16.425Z,95779.92
2018-11-01T08:02:46.103Z,95788.90
2018-11-01T08:05:15.118Z,95787.40
2018-11-01T08:07:43.892Z,95796.35
2018-11-01T08:10:17.452Z,95804.64
2018-11-01T08:12:46.920Z,95788.36
2018-11-01T08:15:18.011Z,95797.67
2018-11-01T08:17:46.777Z,95804.89
2018-11-01T08:20:16.206Z,95816.92
2018-11-01T08:22:44.778Z,95814.01
2018-11-01T08:25:13.984Z,95816.01
2018-11-01T08:27:43.234Z,95814.68
2018-11-01T08:30:14.182Z,95804.11
2018-11-01T08:32:43.004Z,95806.07
2018-11-01T08:35:12.093Z,95805.44
2018-11-01T08:37:41.928Z,95805.84
2018-11-01T08:40:11.433Z,95805.08
2018-11-01T08:42:40.532Z,95798.38
2018-11-01T08:45:11.080Z,95802.95
2018-11-01T08:47:39.939Z,95799.00
2018-11-01T08:50:10.172Z,95801.23
2018-11-01T08:52:39.283Z,95809.41
2018-11-01T08:55:08.672Z,95806.41
2018-11-01T08:57:37.649Z,95812.48
2018-11-01T09:00:10.993Z,95806.64
2018-11-01T09:02:40.031Z,95805.78
2018-11-01T09:05:10.131Z,95813.75
2018-11-01T09:07:39.426Z,95810.28
2018-11-01T09:10:10.577Z,95799.92
2018-11-01T09:12:39.408Z,95792.33
2018-11-01T09:15:09.699Z,95786.36
2018-11-01T09:17:38.494Z,95782.06
2018-11-01T09:20:08.222Z,95779.50
2018-11-01T09:22:36.943Z,95780.88
2018-11-01T09:25:06.007Z,95782.86
2018-11-01T09:27:34.790Z,95779.05
2018-11-01T09:30:07.718Z,95780.36
2018-11-01T09:32:36.420Z,95779.22
2018-11-01T09:35:05.540Z,95779.28
2018-11-01T09:37:34.308Z,95774.91
2018-11-01T09:40:03.040Z,95778.66
2018-11-01T09:42:31.757Z,95776.95
2018-11-01T09:45:00.491Z,95766.89
2018-11-01T09:47:29.729Z,95769.80
2018-11-01T09:49:58.013Z,95780.44
2018-11-01T09:52:26.853Z,95768.08
2018-11-01T09:54:55.657Z,95760.98
2018-11-01T09:57:24.361Z,95760.82
2018-11-01T09:59:53.237Z,95769.03
2018-11-01T10:02:21.926Z,95761.95
2018-11-01T10:04:50.703Z,95764.52
2018-11-01T10:07:19.769Z,95757.23
2018-11-01T10:09:48.460Z,95752.92
2018-11-01T10:12:17.331Z,95750.48
2018-11-01T10:14:46.034Z,95741.89
2018-11-01T10:17:15.083Z,95743.34
2018-11-01T10:19:43.737Z,95745.40
2018-11-01T10:22:12.517Z,95745.12
2018-11-01T10:24:41.164Z,95739.22
2018-11-01T10:27:19.513Z,95730.89
2018-11-01T10:29:38.792Z,95730.86
2018-11-01T10:32:07.612Z,95733.54
2018-11-01T10:34:36.346Z,95729.76
2018-11-01T10:37:05.054Z,95726.41
2018-11-01T10:39:33.761Z,95726.02
2018-11-01T10:42:02.464Z,95718.27
2018-11-01T10:44:31.182Z,95717.13
2018-11-01T10:46:59.856Z,95711.01
2018-11-01T10:49:28.562Z,95715.42
2018-11-01T10:51:57.286Z,95715.33
2018-11-01T10:54:26.029Z,95715.42
2018-11-01T10:56:54.741Z,95721.27
2018-11-01T10:59:32.282Z,95718.15
2018-11-01T11:02:06.097Z,95718.55
2018-11-01T11:04:34.865Z,95713.43
2018-11-01T11:07:03.534Z,95709.81
2018-11-01T11:09:32.743Z,95717.06
2018-11-01T11:12:01.513Z,95706.73
2018-11-01T11:14:30.326Z,95714.80
2018-11-01T11:16:59.901Z,95711.22
2018-11-01T11:19:28.569Z,95709.33
2018-11-01T11:21:57.236Z,95707.05
2018-11-01T11:24:25.917Z,95702.94
2018-11-01T11:29:35.977Z,95694.53
2018-11-01T11:32:04.736Z,95690.30
2018-11-01T11:34:33.460Z,95691.17
2018-11-01T11:37:02.123Z,95684.95
2018-11-01T11:39:30.835Z,95679.53
2018-11-01T11:41:59.567Z,95686.77
2018-11-01T11:44:28.270Z,95693.20
2018-11-01T11:46:56.981Z,95681.98
2018-11-01T11:49:25.620Z,95677.79
2018-11-01T11:51:54.389Z,95681.45
2018-11-01T11:54:23.144Z,95669.95
2018-11-01T11:56:51.995Z,95677.34
2018-11-01T11:59:20.717Z,95672.28
2018-11-01T12:01:49.445Z,95665.41
2018-11-01T12:04:18.178Z,95665.93
2018-11-01T12:06:46.916Z,95666.38
2018-11-01T12:09:15.715Z,95661.30
2018-11-01T12:11:44.617Z,95654.08
2018-11-01T12:14:13.443Z,95650.66
2018-11-01T12:16:43.496Z,95646.33
2018-11-01T12:19:12.183Z,95644.20
2018-11-01T12:21:40.953Z,95641.75
2018-11-01T12:24:09.656Z,95643.73
2018-11-01T12:26:38.357Z,95649.83
2018-11-01T12:29:07.248Z,95643.97
2018-11-01T12:31:35.810Z,95638.97
2018-11-01T12:34:05.221Z,95641.69
2018-11-01T12:36:33.901Z,95643.38
2018-11-01T12:39:02.590Z,95649.16
2018-11-01T12:41:31.423Z,95641.66
2018-11-01T12:44:00.147Z,95639.00
2018-11-01T12:46:31.641Z,95640.40
2018-11-01T12:49:00.397Z,95636.58
2018-11-01T12:51:29.929Z,95637.38
2018-11-01T12:53:59.087Z,95639.42
2018-11-01T12:56:27.782Z,95630.16
2018-11-01T12:58:56.539Z,95640.02
2018-11-01T13:01:25.379Z,95632.95
2018-11-01T13:03:54.060Z,95638.63
2018-11-01T13:06:22.829Z,95640.25
2018-11-01T13:08:51.561Z,95638.12
2018-11-01T13:11:20.280Z,95641.52
2018-11-01T13:13:49.096Z,95641.95
2018-11-01T13:16:17.866Z,95647.02
2018-11-01T13:18:46.649Z,95641.52
2018-11-01T13:21:15.488Z,95649.31
2018-11-01T13:23:44.246Z,95648.64
2018-11-01T13:26:13.015Z,95650.94
2018-11-01T13:28:41.702Z,95645.98
2018-11-01T13:31:10.455Z,95645.05
2018-11-01T13:33:39.179Z,95645.54
2018-11-01T13:36:07.898Z,95642.40
2018-11-01T13:38:36.705Z,95650.69
2018-11-01T13:41:06.480Z,95652.09
2018-11-01T13:43:34.762Z,95653.87
2018-11-01T13:46:03.481Z,95656.81
2018-11-01T13:48:32.326Z,95654.02
2018-11-01T13:51:01.050Z,95655.11
2018-11-01T13:53:29.765Z,95654.81
2018-11-01T13:55:58.502Z,95655.11
2018-11-01T13:58:27.195Z,95656.48
2018-11-01T14:00:55.994Z,95658.85
2018-11-01T14:03:24.750Z,95657.72
2018-11-01T14:05:53.555Z,95654.73
2018-11-01T14:08:22.230Z,95652.64
2018-11-01T14:10:50.990Z,95649.39
2018-11-01T14:13:19.771Z,95652.71
2018-11-01T14:15:48.429Z,95648.14
2018-11-01T14:18:17.230Z,95652.17
2018-11-01T14:20:45.972Z,95657.94
2018-11-01T14:23:14.662Z,95651.79
2018-11-01T14:25:43.426Z,95644.34
2018-11-01T14:28:12.133Z,95640.52
2018-11-01T14:30:40.855Z,95642.86
2018-11-01T14:33:09.851Z,95639.56
2018-11-01T14:35:38.509Z,95644.94
2018-11-01T14:38:07.195Z,95642.57
2018-11-01T14:40:35.869Z,95631.66
2018-11-01T14:43:04.788Z,95632.79
2018-11-01T14:45:33.617Z,95631.96
2018-11-01T14:48:02.345Z,95630.91
2018-11-01T14:50:31.058Z,95624.22
2018-11-01T14:53:00.748Z,95624.05
2018-11-01T14:55:30.366Z,95626.22
2018-11-01T14:57:59.250Z,95623.09
2018-11-01T15:00:26.741Z,95622.70
2018-11-01T15:02:55.771Z,95622.92
2018-11-01T15:05:24.555Z,95614.83
2018-11-01T15:07:53.241Z,95616.25
2018-11-01T15:10:21.978Z,95616.99
2018-11-01T15:12:51.087Z,95614.75
2018-11-01T15:15:19.789Z,95621.14
2018-11-01T15:17:50.447Z,95614.88
2018-11-01T15:20:19.511Z,95622.02
2018-11-01T15:22:48.269Z,95626.91
2018-11-01T15:25:16.944Z,95629.94
2018-11-01T15:27:45.735Z,95633.69
2018-11-01T15:30:16.506Z,95636.55
2018-11-01T15:32:45.281Z,95634.64
2018-11-01T15:35:14.448Z,95638.51
2018-11-01T15:37:43.345Z,95641.98
2018-11-01T15:40:14.854Z,95640.27
2018-11-01T15:42:44.204Z,95641.46
2018-11-01T15:45:13.855Z,95642.47
2018-11-01T15:47:43.080Z,95656.31
2018-11-01T15:50:12.801Z,95656.31
2018-11-01T15:52:41.622Z,95662.00
2018-11-01T15:55:10.720Z,95665.66
2018-11-01T15:57:39.493Z,95669.52
2018-11-01T16:00:10.649Z,95674.77
2018-11-01T16:02:40.742Z,95669.61
2018-11-01T16:05:09.933Z,95673.17
2018-11-01T16:07:38.734Z,95672.87
2018-11-01T16:10:08.389Z,95671.97
2018-11-01T16:12:37.334Z,95674.21
2018-11-01T16:15:07.908Z,95668.62
2018-11-01T16:17:36.638Z,95670.64
2018-11-01T16:20:06.152Z,95677.25
2018-11-01T16:22:34.870Z,95673.72
2018-11-01T16:25:03.809Z,95674.45
2018-11-01T16:27:33.905Z,95674.77
2018-11-01T16:30:06.463Z,95679.66
2018-11-01T16:32:35.155Z,95675.09
2018-11-01T16:35:04.030Z,95678.31
2018-11-01T16:37:32.807Z,95686.42
2018-11-01T16:40:01.593Z,95684.23
2018-11-01T16:42:30.588Z,95684.59
2018-11-01T16:44:59.980Z,95682.08
2018-11-01T16:47:28.642Z,95684.72
2018-11-01T16:49:57.393Z,95682.34
2018-11-01T16:52:26.137Z,95670.89
2018-11-01T16:54:54.836Z,95667.15
2018-11-01T16:57:23.562Z,95662.98
2018-11-01T16:59:52.351Z,95663.20
2018-11-01T17:02:21.158Z,95647.48
2018-11-01T17:04:50.601Z,95641.47
2018-11-01T17:07:19.535Z,95624.63
2018-11-01T17:09:48.263Z,95618.95
2018-11-01T17:12:17.053Z,95612.58
2018-11-01T17:14:45.765Z,95604.88
2018-11-01T17:17:14.428Z,95603.16
2018-11-01T17:19:43.156Z,95604.76
2018-11-01T17:22:11.949Z,95602.23
2018-11-01T17:24:41.877Z,95604.03
2018-11-01T17:27:10.580Z,95606.15
2018-11-01T17:29:39.356Z,95615.92
2018-11-01T17:32:08.032Z,95623.22
2018-11-01T17:34:37.181Z,95634.77
2018-11-01T17:37:06.169Z,95638.30
2018-11-01T17:39:34.921Z,95653.38
2018-11-01T17:42:03.663Z,95654.94
2018-11-01T17:44:32.397Z,95666.90
2018-11-01T17:47:01.196Z,95658.39
2018-11-01T17:49:29.958Z,95650.30
2018-11-01T17:51:58.677Z,95656.65
2018-11-01T17:54:28.259Z,95651.99
2018-11-01T17:56:57.837Z,95654.52
2018-11-01T17:59:34.478Z,95662.78
2018-11-01T18:02:04.659Z,95673.84
2018-11-01T18:04:33.337Z,95672.31
2018-11-01T18:07:02.087Z,95668.58
2018-11-01T18:09:30.795Z,95676.95
2018-11-01T18:11:59.920Z,95677.69
2018-11-01T18:14:28.747Z,95669.70
2018-11-01T18:16:57.434Z,95663.91
2018-11-01T18:19:26.124Z,95669.59
2018-11-01T18:21:54.983Z,95663.69
2018-11-01T18:24:23.785Z,95668.27
2018-11-01T18:26:52.476Z,95672.22
2018-11-01T18:29:21.907Z,95674.23
2018-11-01T18:31:50.620Z,95670.57
2018-11-01T18:34:19.481Z,95669.45
2018-11-01T18:36:48.161Z,95669.02
2018-11-01T18:39:17.021Z,95675.28
2018-11-01T18:41:45.785Z,95679.55
2018-11-01T18:44:14.486Z,95679.43
2018-11-01T18:46:43.331Z,95682.44
2018-11-01T18:49:12.072Z,95690.14
2018-11-01T18:51:40.768Z,95694.80
2018-11-01T18:54:09.621Z,95694.03
2018-11-01T18:56:38.440Z,95704.24
2018-11-01T18:59:07.163Z,95700.44
2018-11-01T19:01:36.013Z,95702.38
2018-11-01T19:04:04.932Z,95701.36
2018-11-01T19:13:20.834Z,95705.09
2018-11-01T19:15:49.678Z,95698.12
2018-11-01T19:18:18.376Z,95703.55
2018-11-01T19:20:47.216Z,95704.47
2018-11-01T19:23:16.006Z,95710.69
2018-11-01T19:25:45.742Z,95707.34
2018-11-01T19:28:14.538Z,95706.42
2018-11-01T19:30:43.185Z,95707.65
2018-11-01T19:33:11.941Z,95702.78
2018-11-01T19:35:40.667Z,95704.39
2018-11-01T19:38:09.399Z,95706.88
2018-11-01T19:40:38.176Z,95706.77
2018-11-01T19:43:06.826Z,95708.59
2018-11-01T19:45:35.512Z,95706.81
2018-11-01T19:48:04.309Z,95712.44
2018-11-01T19:50:33.025Z,95717.70
2018-11-01T19:53:01.714Z,95722.97
2018-11-01T19:55:30.677Z,95724.28
2018-11-01T19:57:59.393Z,95721.66
2018-11-01T20:00:28.112Z,95721.89
2018-11-01T20:02:56.843Z,95722.04
2018-11-01T20:05:25.559Z,95722.16
2018-11-01T20:07:54.296Z,95722.53
2018-11-01T20:10:23.109Z,95715.55
2018-11-01T20:12:51.789Z,95712.03
2018-11-01T20:15:20.515Z,95709.28
2018-11-01T20:17:49.228Z,95711.71
2018-11-01T20:20:17.909Z,95712.83
2018-11-01T20:22:46.763Z,95714.43
2018-11-01T20:25:15.561Z,95716.23
2018-11-01T20:27:44.319Z,95711.69
2018-11-01T20:30:15.333Z,95717.32
2018-11-01T20:32:47.076Z,95718.86
2018-11-01T20:35:17.128Z,95724.45
2018-11-01T20:37:45.904Z,95722.53
2018-11-01T20:40:14.600Z,95721.73
2018-11-01T20:42:43.810Z,95722.02
2018-11-01T20:45:13.409Z,95711.57
2018-11-01T20:47:42.161Z,95705.25
2018-11-01T20:50:12.089Z,95702.35
2018-11-01T20:52:40.800Z,95704.20
2018-11-01T20:55:10.090Z,95711.50
2018-11-01T20:57:39.288Z,95712.25
2018-11-01T21:00:13.600Z,95716.13
2018-11-01T21:02:42.404Z,95713.27
2018-11-01T21:05:12.501Z,95710.95
2018-11-01T21:07:41.160Z,95703.89
2018-11-01T21:10:10.799Z,95711.53
2018-11-01T21:12:39.914Z,95707.82
2018-11-01T21:15:10.522Z,95713.98
2018-11-01T21:17:39.322Z,95711.59
2018-11-01T21:20:08.374Z,95705.93
2018-11-01T21:22:37.102Z,95706.89
2018-11-01T21:25:06.314Z,95710.45
2018-11-01T21:27:34.970Z,95716.38
2018-11-01T21:30:07.896Z,95714.69
2018-11-01T21:32:36.609Z,95719.88
2018-11-01T21:35:06.085Z,95717.37
2018-11-01T21:37:34.633Z,95715.80
2018-11-01T21:40:03.379Z,95725.54
2018-11-01T21:42:32.105Z,95719.64
2018-11-01T21:45:00.869Z,95720.92
2018-11-01T21:47:29.575Z,95716.27
2018-11-01T21:49:58.308Z,95720.58
2018-11-01T21:52:27.001Z,95715.66
2018-11-01T21:54:55.779Z,95717.09
2018-11-01T21:57:24.509Z,95714.69
2018-11-01T21:59:53.268Z,95714.02
2018-11-01T22:02:22.024Z,95714.81
2018-11-01T22:04:50.844Z,95716.38
2018-11-01T22:07:19.956Z,95715.41
2018-11-01T22:09:48.698Z,95729.37
2018-11-01T22:12:17.368Z,95719.14
2018-11-01T22:14:46.075Z,95725.52
2018-11-01T22:17:15.089Z,95719.34
2018-11-01T22:19:43.871Z,95720.40
2018-11-01T22:22:12.557Z,95716.97
2018-11-01T22:24:41.264Z,95718.41
2018-11-01T22:27:09.975Z,95718.81
2018-11-01T22:29:38.649Z,95730.30
2018-11-01T22:32:07.425Z,95723.31
2018-11-01T22:34:36.091Z,95720.91
2018-11-01T22:37:04.789Z,95718.81
2018-11-01T22:39:33.497Z,95717.83
2018-11-01T22:42:02.438Z,95725.33
2018-11-01T22:44:31.102Z,95726.63
2018-11-01T22:46:59.810Z,95729.96
2018-11-01T22:49:28.573Z,95728.64
2018-11-01T22:51:57.335Z,95730.14
2018-11-01T22:54:26.014Z,95735.53
2018-11-01T22:56:54.757Z,95723.39
2018-11-01T22:59:23.469Z,95717.05
2018-11-01T23:01:52.228Z,95724.39
2018-11-01T23:04:21.013Z,95722.72
2018-11-01T23:06:49.961Z,95725.48
2018-11-01T23:09:18.727Z,95722.54
2018-11-01T23:11:47.485Z,95715.20
2018-11-01T23:14:16.177Z,95720.72
2018-11-01T23:16:45.562Z,95714.88
2018-11-01T23:19:14.482Z,95711.05
2018-11-01T23:21:43.164Z,95712.05
2018-11-01T23:24:11.868Z,95713.30
2018-11-01T23:26:40.517Z,95715.66
2018-11-01T23:29:09.781Z,95713.75
2018-11-01T23:31:38.531Z,95717.36
2018-11-01T23:34:07.316Z,95706.20
2018-11-01T23:36:41.161Z,95714.16
2018-11-01T23:39:15.109Z,95701.33
2018-11-01T23:41:48.942Z,95716.97
2018-11-01T23:44:22.894Z,95713.70
2018-11-01T23:46:56.859Z,95711.50
2018-11-01T23:49:29.288Z,95716.10
2018-11-01T23:52:03.153Z,95722.34
2018-11-01T23:54:31.842Z,95726.09
2018-11-01T23:57:00.536Z,95723.45
2018-11-01T23:59:29.210Z,95730.36
